Date,TemperatureHighF,TemperatureAvgF,TemperatureLowF,DewpointHighF,DewpointAvgF,DewpointLowF,HumidityHigh,HumidityAvg,HumidityLow,PressureMaxIn,PressureMinIn,WindSpeedMaxMPH,WindSpeedAvgMPH,GustSpeedMaxMPH,PrecipitationSumIn
2013-1-1,29,19,11,22,14,7,90,81,68,30.70,30.47,5,1,12,0.00
2013-1-2,29,19,11,23,14,7,86,82,75,30.68,30.50,3,1,6,0.00
2013-1-3,29,18,11,24,14,7,87,84,74,30.63,30.53,2,0,4,0.00
2013-1-4,29,20,12,24,17,8,89,85,79,30.68,30.49,2,0,4,0.00
2013-1-5,32,23,17,28,20,13,89,86,81,30.53,30.27,1,0,3,0.00
2013-1-6,35,28,24,30,24,21,88,86,77,30.32,30.21,2,0,4,0.00
2013-1-12,26,18,8,19,12,4,84,80,74,30.49,30.34,3,0,3,0.00
2013-1-13,25,13,4,14,7,0,87,76,57,30.61,30.44,9,1,11,0.00
2013-1-14,27,16,6,18,10,2,85,77,62,30.77,30.55,4,0,6,0.00
2013-1-15,32,22,11,27,16,7,85,81,67,30.91,30.73,4,1,6,0.00
2013-1-16,41,28,20,28,21,16,86,75,56,30.84,30.62,5,1,7,0.00
2013-1-17,38,27,18,24,19,14,85,72,52,30.74,30.54,4,1,7,0.00
2013-1-18,38,25,15,23,17,12,85,74,48,30.69,30.51,3,1,6,0.00
2013-1-19,36,22,14,25,16,10,85,78,51,30.72,30.52,4,1,5,0.00
2013-1-20,37,23,13,23,16,9,86,76,53,30.72,30.50,3,1,5,0.00
2013-1-21,40,25,16,25,18,12,84,75,50,30.63,30.42,3,1,4,0.00
2013-1-22,35,26,18,26,20,14,85,78,60,30.54,30.33,2,0,4,0.00
2013-1-23,48,33,26,34,27,21,91,79,36,30.35,30.17,112,29,113,0.29
2013-1-24,37,35,33,35,33,31,92,92,91,30.38,30.24,112,110,113,0.19
2013-1-25,39,35,34,37,33,32,93,92,92,30.36,30.14,112,58,113,0.04
2013-1-26,41,36,32,38,32,30,93,88,72,30.14,29.93,112,2,113,0.05
2013-1-27,33,29,23,30,23,19,90,80,66,30.28,30.00,3,0,7,0.04
2013-1-28,37,28,21,29,23,17,87,81,61,30.38,30.25,4,0,5,0.00
2013-1-29,45,33,25,33,27,22,88,80,64,30.55,30.34,6,1,10,0.00
2013-1-30,41,32,25,32,26,22,89,82,62,30.62,30.47,4,1,5,0.00
2013-1-31,41,30,24,31,25,20,88,81,66,30.57,30.39,3,0,4,0.00
2013-2-1,40,30,22,28,23,19,88,77,51,30.55,30.38,3,0,5,0.00
2013-2-2,40,31,26,31,26,22,87,81,68,30.57,30.41,2,0,3,0.00
2013-2-3,40,30,24,30,25,21,89,82,63,30.48,30.32,2,0,4,0.00
2013-2-4,41,31,24,29,24,20,89,75,52,30.44,30.23,2,0,4,0.00
2013-2-5,46,32,24,28,25,21,87,75,43,30.26,30.07,3,0,11,0.00
2013-2-6,40,31,26,30,25,23,90,80,57,30.36,30.17,3,0,5,0.00
2013-2-7,34,31,27,30,26,23,92,83,72,30.21,30.05,3,0,10,0.14
2013-2-8,33,29,24,25,20,17,89,71,51,30.14,30.03,10,3,14,0.05
2013-2-9,38,30,25,25,20,16,77,66,49,30.26,30.11,9,2,12,0.00
2013-2-10,39,30,20,26,21,16,89,70,51,30.33,30.21,6,1,9,0.00
2013-2-11,45,33,24,28,22,18,79,64,41,30.44,30.24,5,1,9,0.00
2013-2-12,40,30,21,32,23,16,82,74,53,30.60,30.41,3,0,5,0.00
2013-2-13,45,32,24,33,26,20,92,77,54,30.61,30.41,4,1,5,0.00
2013-2-14,44,36,28,32,29,24,92,76,61,30.57,30.44,6,2,9,0.00
2013-2-15,46,34,27,32,27,24,88,75,53,30.61,30.43,4,1,6,0.00
2013-2-16,44,32,25,32,26,21,87,80,61,30.50,30.22,2,0,6,0.00
2013-2-17,44,32,25,29,23,17,88,71,34,30.25,30.09,3,1,4,0.00
2013-2-18,47,34,24,31,25,19,86,71,38,30.18,29.85,5,0,12,0.01
2013-2-19,34,29,23,32,25,20,92,84,80,29.94,29.72,112,2,113,0.38
2013-2-20,36,28,22,27,22,18,88,78,55,30.18,29.95,3,0,5,0.00
2013-2-21,39,28,20,28,20,16,87,74,51,30.35,30.14,5,1,12,0.00
2013-2-22,47,33,22,32,25,18,92,74,49,30.44,30.12,6,1,13,0.00
2013-2-23,37,33,29,31,21,16,79,62,48,30.38,30.06,9,2,15,0.00
2013-2-24,40,31,25,24,20,16,75,63,43,30.47,30.33,5,1,10,0.00
2013-2-25,42,31,21,26,20,15,83,66,35,30.43,30.30,6,0,12,0.00
2013-2-26,42,31,24,27,20,16,78,64,42,30.49,30.34,5,1,7,0.00
2013-2-27,46,31,20,29,22,15,82,69,40,30.58,30.42,3,0,4,0.00
2013-2-28,47,37,30,36,30,25,89,77,60,30.64,30.46,3,0,5,0.00
2013-3-1,49,36,28,37,30,25,91,82,62,30.67,30.44,3,0,5,0.00
2013-3-2,54,39,30,38,31,27,88,76,48,30.49,30.19,3,0,17,0.00
2013-3-3,43,38,33,40,35,31,91,88,73,30.19,30.08,112,6,113,0.16
2013-3-4,45,36,31,37,32,28,91,86,72,30.26,30.11,3,0,7,0.00
2013-3-5,45,38,30,35,31,26,91,77,60,30.14,29.78,5,1,19,0.02
2013-3-6,33,33,31,31,30,29,90,89,88,29.79,29.72,113,108,113,0.45
2013-3-7,37,30,23,33,27,20,92,88,84,30.15,30.01,55,3,113,0.00
2013-3-8,42,32,22,34,27,19,90,83,66,30.13,29.93,2,0,5,0.00
2013-3-9,48,36,27,29,24,19,88,65,32,30.53,30.13,7,1,7,0.00
2013-3-10,54,36,25,30,23,20,81,62,31,30.63,30.39,3,1,5,0.00
2013-3-11,53,37,28,34,28,23,83,70,38,30.51,30.26,4,1,6,0.00
2013-3-12,55,39,30,39,32,27,89,79,52,30.41,30.22,2,0,4,0.00
2013-3-13,56,40,30,40,33,27,90,78,49,30.43,30.26,3,1,5,0.00
2013-3-14,59,41,30,37,31,27,89,73,34,30.39,30.24,4,1,13,0.00
2013-3-15,54,40,31,40,33,28,88,77,50,30.34,30.16,3,0,5,0.00
2013-3-16,54,39,30,39,30,26,89,73,39,30.26,30.06,3,1,9,0.00
2013-3-17,51,37,28,32,28,22,90,72,39,30.26,30.10,3,1,6,0.00
2013-3-18,50,37,27,36,28,23,88,70,42,30.32,30.13,4,0,4,0.00
2013-3-19,52,42,36,39,35,29,91,77,56,30.22,30.08,113,30,113,0.16
2013-3-20,47,41,37,41,37,34,92,88,77,30.13,30.02,113,45,113,0.44
2013-3-21,47,39,31,36,29,21,92,70,42,30.23,30.08,113,18,113,0.02
2013-3-22,44,35,26,25,19,13,74,53,33,30.28,30.16,6,2,9,0.00
2013-3-23,49,34,26,31,22,19,78,63,32,30.33,30.11,4,1,6,0.00
2013-3-24,57,39,29,37,30,24,86,72,41,30.26,30.04,3,1,7,0.00
2013-3-25,57,41,30,38,30,26,90,69,35,30.17,29.97,3,0,9,0.00
2013-3-26,52,42,34,39,34,30,89,76,56,30.06,29.91,3,0,14,0.01
2013-3-27,55,43,34,40,36,32,92,80,53,30.07,29.96,7,0,14,0.03
2013-3-28,50,43,38,42,38,35,92,83,64,30.22,30.01,3,0,12,0.06
2013-3-29,59,42,34,44,37,31,91,83,55,30.31,30.13,4,0,5,0.00
2013-3-30,59,42,34,47,37,31,96,84,56,30.25,30.05,3,0,12,0.02
2013-3-31,45,41,35,42,38,32,92,90,85,30.17,29.95,112,10,113,0.68
2013-4-1,46,41,38,43,38,35,92,89,76,30.24,30.10,3,0,112,0.16
2013-4-2,56,42,31,46,37,29,92,84,59,30.31,30.14,3,0,4,0.00
2013-4-3,59,44,35,47,40,32,92,84,61,30.28,30.05,3,1,10,0.00
2013-4-4,49,44,41,44,41,38,91,87,78,30.11,29.93,98,1,113,0.14
2013-4-5,52,44,37,39,36,33,92,76,54,30.18,30.10,3,0,16,0.01
2013-4-6,52,46,41,40,38,35,94,76,55,30.16,30.07,3,0,17,0.02
2013-4-7,51,44,35,40,37,32,90,78,57,30.08,29.73,9,1,113,0.23
2013-4-8,44,38,32,32,27,23,91,66,49,30.16,29.73,23,5,113,0.10
2013-4-9,54,44,34,34,30,26,75,59,37,30.31,30.15,9,3,11,0.00
2013-4-10,67,49,37,48,38,32,84,66,35,30.37,30.05,4,1,11,0.00
2013-4-11,59,48,40,42,33,28,78,57,30,30.13,29.93,7,2,12,0.00
2013-4-12,63,46,31,44,33,27,85,63,35,30.11,29.88,4,1,6,0.00
2013-4-13,63,48,37,43,35,31,87,63,34,29.92,29.78,6,1,11,0.00
2013-4-14,56,42,30,34,30,24,80,64,39,29.95,29.77,8,1,15,0.00
2013-4-15,44,37,33,32,26,20,83,66,41,29.99,29.74,6,2,12,0.01
2013-4-16,42,35,32,30,24,20,87,66,44,30.32,29.98,14,4,18,0.01
2013-4-17,49,40,32,27,23,19,71,51,33,30.43,30.31,11,2,12,0.00
2013-4-18,60,43,29,36,28,22,76,56,33,30.45,30.30,4,1,6,0.00
2013-4-19,65,47,33,43,35,29,86,66,38,30.38,30.16,5,1,11,0.00
2013-4-20,64,49,34,38,33,29,80,55,28,30.27,30.04,4,1,7,0.00
2013-4-21,68,50,34,44,35,28,82,60,30,30.25,30.03,3,0,5,0.00
2013-4-22,68,52,38,41,33,24,84,53,26,30.17,30.00,7,1,9,0.00
2013-4-23,61,48,35,36,26,16,61,42,28,30.20,29.96,4,1,6,0.00
2013-4-24,64,48,33,36,28,23,71,48,25,30.16,29.99,4,1,6,0.00
2013-4-25,68,48,30,42,30,22,75,52,22,30.18,30.01,3,0,7,0.00
2013-4-26,71,52,36,48,38,30,84,60,32,30.31,30.13,2,0,4,0.00
2013-4-27,73,54,38,48,40,33,85,61,33,30.33,30.12,3,0,6,0.00
2013-4-28,74,55,40,51,42,36,86,64,33,30.18,29.97,3,0,4,0.00
2013-4-29,73,57,44,50,41,35,74,56,37,30.04,29.76,6,1,7,0.00
2013-4-30,64,53,45,36,28,21,60,38,22,30.11,29.80,8,3,11,0.00
2013-5-1,62,51,37,32,25,18,54,37,23,30.42,30.09,5,2,9,0.00
2013-5-2,68,50,34,46,30,20,63,47,26,30.46,30.21,3,0,4,0.00
2013-5-3,76,55,37,50,36,30,82,54,19,30.22,29.95,4,0,6,0.00
2013-5-4,65,55,43,42,34,29,60,46,31,29.98,29.65,5,2,11,0.00
2013-5-5,58,48,40,47,40,32,90,73,46,29.85,29.66,5,0,7,0.20
2013-5-6,54,46,41,47,43,38,92,86,73,29.99,29.84,2,0,9,0.12
2013-5-7,54,46,40,46,42,37,91,85,71,30.06,29.98,0,0,6,0.07
2013-5-8,60,52,45,50,46,43,92,83,66,30.14,30.01,2,0,6,0.00
2013-5-9,69,54,42,54,47,39,90,79,45,30.19,30.04,3,0,5,0.00
2013-5-10,75,57,45,55,48,42,92,73,37,30.24,30.10,3,1,6,0.00
2013-5-11,81,60,45,56,46,41,94,64,26,30.26,30.06,7,0,13,0.00
2013-5-12,81,61,47,54,42,32,87,56,20,30.19,30.06,5,1,14,0.00
2013-5-13,81,59,41,49,37,31,80,50,20,30.15,29.97,4,0,15,0.00
2013-5-14,79,60,44,50,42,38,85,57,26,30.04,29.84,3,0,8,0.00
2013-5-15,71,57,44,49,42,38,82,61,33,29.98,29.89,5,0,10,0.00
2013-5-16,51,48,44,47,44,42,94,87,75,29.97,29.85,1,0,4,0.36
2013-5-17,58,48,42,45,41,35,92,77,44,30.09,29.93,112,2,113,0.28
2013-5-18,66,49,37,46,39,34,89,70,39,30.17,30.07,4,0,13,0.00
2013-5-19,66,54,45,41,37,33,79,55,31,30.25,30.08,7,2,10,0.00
2013-5-20,68,55,39,50,38,32,80,56,35,30.19,29.93,3,1,5,0.00
2013-5-21,67,54,40,43,36,27,82,53,28,29.96,29.78,8,1,18,0.00
2013-5-22,54,43,33,29,23,17,69,46,27,30.02,29.82,6,1,10,0.00
2013-5-23,58,44,32,34,28,22,73,55,32,30.08,29.90,3,0,11,0.00
2013-5-24,68,48,30,38,30,24,82,54,25,30.09,29.94,3,0,17,0.00
2013-5-25,66,50,34,40,33,26,80,54,33,30.04,29.93,4,0,13,0.00
2013-5-26,63,51,40,41,37,32,80,60,38,30.10,29.96,5,0,10,0.00
2013-5-27,55,47,40,45,40,34,90,79,66,30.08,29.93,5,0,14,0.15
2013-5-28,64,51,43,46,42,36,91,74,38,29.98,29.90,3,0,10,0.01
2013-5-29,66,54,43,44,39,34,84,61,34,29.98,29.78,4,0,13,0.00
2013-5-30,69,52,37,47,35,26,87,58,25,30.09,29.95,5,1,7,0.00
2013-5-31,74,57,39,41,35,26,75,47,21,30.17,30.02,4,0,4,0.00
2013-6-1,79,63,44,51,41,33,71,47,21,30.07,29.81,3,1,4,0.00
2013-6-2,79,63,46,54,44,38,75,53,28,29.83,29.68,4,1,6,0.00
2013-6-3,79,64,49,54,40,36,70,43,25,29.87,29.73,4,1,5,0.00
2013-6-4,86,66,49,52,43,36,71,45,20,29.94,29.79,3,0,4,0.00
2013-6-5,86,67,49,59,45,38,74,48,23,29.99,29.83,4,0,5,0.00
2013-6-6,88,68,51,59,47,39,77,51,19,29.94,29.81,3,0,8,0.00
2013-6-7,89,68,50,62,48,40,77,52,24,29.97,29.79,2,0,6,0.00
2013-6-8,88,73,60,61,52,46,71,49,30,29.87,29.72,4,1,5,0.00
2013-6-9,92,73,56,63,52,43,70,50,27,29.82,29.60,3,0,7,0.00
2013-6-10,69,60,49,59,53,44,92,79,61,29.96,29.61,3,0,6,0.32
2013-6-11,73,57,43,49,42,35,90,62,28,29.98,29.91,8,1,18,0.00
2013-6-12,76,57,41,47,38,34,85,54,26,29.97,29.87,4,0,13,0.00
2013-6-13,72,57,44,42,35,29,69,45,25,30.10,29.92,4,0,7,0.00
2013-6-14,70,58,47,45,38,31,64,48,31,30.09,29.86,6,2,8,0.00
2013-6-15,81,60,42,49,37,30,78,48,21,29.98,29.83,2,0,9,0.00
2013-6-16,78,60,43,51,39,30,76,48,26,30.07,29.93,3,0,11,0.00
2013-6-17,77,60,44,49,39,35,79,49,23,30.08,29.88,6,0,16,0.00
2013-6-18,68,55,45,43,38,32,88,54,31,29.91,29.83,4,1,15,0.11
2013-6-19,63,50,39,42,37,30,91,65,34,30.08,29.85,4,0,10,0.01
2013-6-20,68,52,36,42,36,31,84,57,30,30.08,29.94,3,0,7,0.00
2013-6-21,70,57,42,44,38,29,81,52,22,30.06,29.92,3,0,5,0.00
2013-6-22,75,60,45,53,41,34,75,51,32,30.02,29.83,5,0,7,0.00
2013-6-23,69,57,47,50,43,37,87,62,38,29.83,29.73,4,0,13,0.02
2013-6-24,54,52,50,50,46,41,92,80,66,29.91,29.66,6,0,14,0.04
2013-6-25,64,55,50,56,51,47,91,85,71,29.97,29.86,5,1,16,0.14
2013-6-26,75,63,55,56,53,50,90,73,48,30.07,29.94,5,0,15,0.00
2013-6-27,86,64,47,58,50,44,91,67,29,30.16,30.05,3,0,10,0.00
2013-6-28,88,68,51,62,52,46,87,60,32,30.14,29.91,4,0,7,0.00
2013-6-29,89,70,54,61,51,46,82,55,26,30.01,29.84,4,0,6,0.00
2013-6-30,96,72,52,60,49,42,75,49,22,29.94,29.75,4,0,10,0.00
2013-7-1,96,71,55,62,53,48,79,56,21,29.94,29.80,3,0,10,0.00
2013-7-2,92,70,61,65,56,49,91,64,29,30.05,29.81,5,1,6,0.23
2013-7-3,92,70,58,69,59,54,93,72,31,30.07,29.77,4,1,6,0.01
2013-7-4,90,72,60,66,56,49,81,59,30,29.90,29.65,6,0,9,0.00
2013-7-5,89,71,55,59,46,32,77,47,20,29.75,29.64,8,0,13,0.00
2013-7-6,86,64,48,53,40,34,72,46,21,29.80,29.70,4,0,11,0.00
2013-7-7,86,65,46,54,41,34,73,46,23,29.89,29.75,5,0,17,0.00
2013-7-8,87,62,46,54,39,32,67,46,21,30.04,29.84,4,0,14,0.00
2013-7-9,87,66,48,54,40,32,70,43,21,30.11,29.98,5,0,15,0.00
2013-7-10,88,66,49,53,41,35,74,44,19,30.06,29.88,9,0,18,0.00
2013-7-11,86,65,48,50,38,31,73,42,17,29.94,29.82,4,0,14,0.00
2013-7-12,83,62,45,52,36,29,66,41,18,29.96,29.86,5,0,21,0.00
2013-7-13,85,64,46,49,37,30,76,41,18,30.02,29.88,8,0,13,0.00
2013-7-14,88,64,46,56,40,30,68,43,22,30.07,29.90,11,0,11,0.00
2013-7-15,88,66,51,52,44,37,69,47,23,29.94,29.74,0,0,0,0.00
2013-7-16,82,66,52,52,41,32,68,44,23,29.99,29.74,11,0,12,0.00
2013-7-17,81,62,43,53,39,29,73,46,18,30.15,29.97,2,0,6,0.00
2013-7-18,92,66,47,61,44,36,76,48,20,30.11,29.90,2,0,7,0.00
2013-7-19,91,70,52,62,47,38,69,46,24,29.98,29.78,0,0,0,0.00
2013-7-20,94,72,56,58,47,38,66,43,19,29.87,29.68,0,0,0,0.00
2013-7-21,94,74,57,61,49,41,68,44,19,29.83,29.68,0,0,0,0.00
2013-7-22,90,72,59,66,54,40,78,54,32,29.93,29.76,0,0,0,0.00
2013-7-23,88,66,56,63,52,40,82,60,32,29.99,29.84,0,0,0,0.02
2013-7-24,86,71,58,61,55,51,82,60,36,29.99,29.83,0,0,5,0.00
2013-7-25,91,71,56,64,55,47,78,60,32,30.03,29.83,5,0,10,0.00
2013-7-26,89,71,59,63,54,44,79,57,27,30.07,29.91,2,0,7,0.00
2013-7-27,90,71,55,61,50,44,77,51,25,30.00,29.78,3,0,6,0.00
2013-7-28,88,71,56,58,49,42,78,50,24,29.84,29.69,6,0,10,0.00
2013-7-29,84,65,51,53,40,31,75,44,18,29.99,29.74,5,0,19,0.00
2013-7-30,85,64,46,49,35,30,69,39,15,30.12,29.95,3,0,11,0.00
2013-7-31,83,65,52,50,39,31,64,41,23,30.07,29.92,5,0,23,0.00
2013-8-1,79,62,45,46,37,33,69,43,22,30.01,29.91,6,0,11,0.00
2013-8-2,76,60,44,46,40,35,74,50,30,30.04,29.88,2,0,5,0.00
2013-8-3,82,63,46,49,40,33,71,46,21,30.02,29.88,4,0,6,0.00
2013-8-4,85,64,46,50,40,34,73,45,22,30.04,29.89,4,0,12,0.00
2013-8-5,88,65,47,54,41,32,69,44,18,30.04,29.87,3,0,10,0.00
2013-8-6,86,64,47,55,42,32,72,48,26,30.04,29.85,2,0,7,0.00
2013-8-7,80,66,54,44,40,34,57,39,25,29.98,29.87,3,0,12,0.00
2013-8-8,74,58,44,48,41,35,75,55,31,30.02,29.89,1,0,10,0.00
2013-8-9,78,60,44,48,40,34,74,51,20,29.97,29.85,4,0,11,0.00
2013-8-10,77,58,42,49,41,35,79,55,29,30.08,29.94,3,0,9,0.00
2013-8-11,82,60,44,50,40,35,80,52,24,30.09,29.90,5,0,10,0.00
2013-8-12,82,61,44,50,40,35,74,50,22,30.05,29.92,3,0,9,0.00
2013-8-13,85,62,45,54,41,35,77,49,22,30.09,29.92,3,0,9,0.00
2013-8-14,88,63,45,53,39,32,74,45,18,30.07,29.89,4,0,11,0.00
2013-8-15,85,63,47,52,37,32,72,43,17,30.04,29.91,4,0,15,0.00
2013-8-16,87,64,45,52,40,31,72,45,21,30.09,29.93,5,0,13,0.00
2013-8-17,83,64,48,57,45,35,77,51,29,30.08,29.86,2,0,4,0.00
2013-8-18,89,72,57,65,51,40,70,49,27,29.97,29.78,2,0,10,0.00
2013-8-19,87,69,59,61,54,46,79,60,31,29.97,29.81,6,0,7,0.02
2013-8-20,82,69,61,62,56,53,87,65,39,29.95,29.77,1,0,7,0.01
2013-8-21,86,67,57,62,53,49,78,62,31,29.95,29.76,5,0,8,0.00
2013-8-22,80,64,54,59,47,37,91,59,29,29.96,29.83,6,0,13,0.04
2013-8-23,82,61,45,52,40,35,79,50,23,29.98,29.79,2,0,10,0.00
2013-8-24,77,61,46,48,42,36,79,53,29,29.90,29.78,12,0,17,0.00
2013-8-25,74,60,48,49,44,40,78,58,40,29.96,29.82,5,0,16,0.00
2013-8-26,77,60,46,52,43,38,84,57,29,30.02,29.92,4,0,15,0.00
2013-8-27,81,60,44,52,41,35,80,54,25,30.01,29.82,5,0,12,0.00
2013-8-28,80,62,47,53,44,35,77,54,34,29.96,29.82,5,0,15,0.00
2013-8-29,80,62,45,52,40,35,76,49,26,30.10,29.92,5,0,18,0.00
2013-8-30,86,62,44,53,39,30,73,47,22,30.18,29.96,4,0,9,0.00
2013-8-31,86,62,44,52,40,34,77,49,19,30.10,29.89,4,0,15,0.00
2013-9-1,79,63,52,58,49,39,90,62,42,29.97,29.84,6,0,13,0.14
2013-9-2,70,61,55,59,55,46,92,80,44,29.94,29.83,2,0,7,0.01
2013-9-3,76,62,53,58,53,49,87,73,48,29.97,29.88,6,0,16,0.00
2013-9-4,79,62,49,57,51,46,92,69,39,30.05,29.90,6,0,13,0.00
2013-9-5,74,58,46,52,40,33,86,56,24,30.05,29.88,6,0,15,0.00
2013-9-6,75,56,40,50,39,34,83,55,32,30.18,29.95,1,0,3,0.00
2013-9-7,83,61,45,51,40,34,78,51,22,30.06,29.86,5,0,11,0.00
2013-9-8,81,60,44,58,41,32,76,51,22,30.06,29.83,1,0,4,0.00
2013-9-9,83,65,51,49,42,36,72,46,24,29.96,29.76,1,0,3,0.00
2013-9-10,82,64,50,50,42,37,67,46,26,29.94,29.76,2,0,3,0.00
2013-9-11,84,63,49,57,44,38,72,52,27,30.02,29.84,3,0,8,0.00
2013-9-12,82,62,52,58,48,42,74,60,33,29.98,29.79,3,0,6,0.00
2013-9-13,75,63,53,61,53,47,82,70,46,29.93,29.77,3,0,5,0.00
2013-9-14,85,64,51,59,50,42,88,65,31,29.87,29.66,6,0,8,0.00
2013-9-15,78,60,47,53,38,26,80,49,19,29.89,29.72,7,0,19,0.00
2013-9-16,77,56,40,50,35,29,74,48,21,30.00,29.82,9,0,15,0.00
2013-9-17,68,56,47,44,39,33,75,55,34,29.93,29.72,7,0,11,0.00
2013-9-18,68,55,46,43,39,33,78,57,34,30.05,29.87,6,2,8,0.00
2013-9-19,75,55,40,45,34,26,74,49,17,30.06,29.83,2,0,5,0.00
2013-9-20,72,55,40,46,36,27,78,53,20,29.90,29.69,5,0,21,0.00
2013-9-21,55,48,38,47,42,36,90,81,63,29.91,29.67,4,0,17,0.40
2013-9-22,59,45,36,45,39,34,91,81,47,30.10,29.91,3,0,6,0.01
2013-9-23,66,51,39,50,43,36,94,77,39,30.15,29.97,1,0,6,0.00
2013-9-24,62,52,42,47,42,38,87,70,45,30.02,29.82,4,0,17,0.04
2013-9-25,53,42,33,38,33,28,91,73,41,29.98,29.82,6,0,10,0.01
2013-9-26,53,45,39,34,32,27,75,60,39,30.14,29.91,6,2,9,0.00
2013-9-27,59,46,34,37,33,28,84,61,33,30.25,30.08,5,0,6,0.00
2013-9-28,64,50,37,41,35,30,83,58,37,30.23,29.96,6,0,20,0.00
2013-9-29,56,54,52,48,42,33,86,66,43,30.00,29.90,6,1,19,0.01
2013-9-30,60,53,46,51,47,43,92,82,64,30.02,29.91,4,0,16,0.06
2013-10-1,64,49,40,47,40,36,91,74,40,30.08,29.95,4,0,9,0.00
2013-10-2,62,47,37,42,33,23,86,62,25,30.09,29.93,7,0,13,0.00
2013-10-3,53,46,38,32,30,26,72,54,36,30.27,30.03,7,3,11,0.00
2013-10-4,56,47,41,33,30,23,66,51,36,30.40,30.25,6,2,10,0.00
2013-10-5,66,48,32,37,29,24,73,51,31,30.52,30.26,4,1,6,0.00
2013-10-6,69,47,33,41,28,21,81,53,20,30.38,30.14,5,0,10,0.00
2013-10-7,66,46,31,40,27,20,76,51,26,30.22,29.99,2,0,11,0.00
2013-10-8,57,47,34,35,30,22,74,52,35,30.11,29.74,5,0,6,0.00
2013-10-9,50,46,39,36,35,27,83,66,52,29.88,29.66,10,3,11,0.01
2013-10-10,60,45,36,41,35,29,82,69,45,30.09,29.87,3,0,7,0.00
2013-10-11,59,43,31,42,35,27,92,75,51,30.20,30.04,2,0,4,0.00
2013-10-12,58,42,30,42,34,27,89,74,45,30.15,29.93,3,0,7,0.35
2013-10-13,51,42,35,39,35,31,90,78,61,30.29,29.99,4,1,7,0.00
2013-10-14,56,41,31,38,32,28,90,73,43,30.40,30.21,4,1,6,0.00
2013-10-15,55,42,32,35,30,24,84,63,41,30.34,30.22,5,1,7,0.00
2013-10-16,59,40,29,40,30,24,83,67,42,30.40,30.20,3,0,4,0.00
2013-10-17,58,42,30,43,32,26,87,71,44,30.35,30.14,3,1,5,0.00
2013-10-18,62,45,33,41,32,28,83,63,37,30.34,30.13,3,1,4,0.00
2013-10-19,60,44,32,43,33,28,86,68,42,30.35,30.14,3,1,4,0.00
2013-10-20,62,45,33,46,34,29,87,69,43,30.27,30.05,4,1,4,0.00
2013-10-21,64,47,35,44,33,27,78,60,36,30.25,30.05,3,1,4,0.00
2013-10-22,60,45,33,45,32,25,84,62,39,30.29,30.08,3,1,4,0.00
2013-10-23,60,44,32,42,32,26,83,63,39,30.23,30.03,4,1,4,0.00
2013-10-24,63,44,33,39,30,24,81,59,30,30.26,30.08,2,1,5,0.00
2013-10-25,59,42,30,42,30,24,83,64,38,30.42,30.24,2,0,4,0.00
2013-10-26,57,43,31,43,31,26,83,64,43,30.42,30.20,4,1,4,0.00
2013-10-27,62,42,31,38,29,25,89,65,28,30.21,29.62,13,0,19,0.06
2013-10-28,39,35,33,36,33,30,91,90,89,29.92,29.56,3,0,6,0.28
2013-10-29,41,39,36,38,37,34,91,90,86,30.13,29.92,0,0,3,0.05
2013-10-30,42,38,33,37,34,30,91,88,78,30.32,30.11,3,0,5,0.01
2013-10-31,49,39,30,43,35,28,91,87,74,30.44,30.27,3,1,5,0.00
2013-11-1,52,40,31,44,36,29,92,85,70,30.41,30.21,3,1,4,0.00
2013-11-2,56,40,30,42,34,28,91,79,57,30.22,29.96,4,1,10,0.00
2013-11-3,43,38,33,32,26,21,73,60,44,30.17,30.04,6,3,9,0.00
2013-11-4,46,38,30,28,25,22,74,60,44,30.31,30.04,6,2,8,0.00
2013-11-5,48,37,29,37,29,23,83,73,49,30.43,30.28,3,0,5,0.00
2013-11-6,51,41,31,42,35,28,88,81,63,30.51,30.32,2,0,4,0.00
2013-11-7,59,45,35,39,34,30,90,68,37,30.33,30.12,3,0,13,0.00
2013-11-8,57,42,34,41,34,30,87,75,50,30.22,30.06,4,0,7,0.00
2013-11-9,50,39,31,41,34,28,92,83,65,30.26,30.11,3,1,4,0.00
2013-11-10,52,38,30,40,31,23,90,76,49,30.33,30.19,3,1,4,0.00
2013-11-11,50,38,29,38,29,21,83,70,56,30.42,30.25,3,0,3,0.00
2013-11-12,56,45,38,44,36,29,78,70,61,30.45,30.32,2,0,3,0.00
2013-11-13,55,41,32,45,34,29,89,77,53,30.49,30.30,3,1,3,0.00
2013-11-14,53,40,30,41,32,26,90,74,42,30.32,29.93,4,0,5,0.00
2013-11-15,46,38,31,32,27,22,79,65,43,30.02,29.83,7,2,13,0.00
2013-11-16,48,39,31,33,28,23,81,65,50,30.00,29.78,2,0,6,0.00
2013-11-17,47,35,28,37,30,24,88,81,62,30.24,30.00,2,0,3,0.00
2013-11-18,49,38,27,38,31,24,88,79,62,30.30,30.09,3,0,13,0.00
2013-11-19,43,41,38,40,38,35,91,90,77,30.11,29.97,113,37,113,0.52
2013-11-20,44,41,38,42,38,33,97,90,81,30.00,29.87,113,70,113,0.29
2013-11-21,38,34,30,33,22,17,83,63,46,30.44,30.00,12,5,15,0.00
2013-11-22,45,38,28,22,17,9,60,43,34,30.50,30.20,16,3,18,0.00
2013-11-23,47,38,29,26,20,15,67,48,33,30.32,30.17,16,3,19,0.00
2013-11-24,41,30,23,31,21,17,79,69,48,30.51,30.30,3,1,5,0.00
2013-11-25,42,31,24,28,22,18,80,69,44,30.62,30.45,3,1,4,0.00
2013-11-26,42,32,26,33,26,22,84,78,60,30.53,30.29,2,1,3,0.00
2013-11-27,43,34,30,34,29,26,86,81,69,30.29,30.08,3,0,4,0.00
2013-11-28,44,34,28,36,29,24,92,83,71,30.29,30.10,3,1,4,0.00
2013-11-29,45,34,28,37,29,24,90,83,69,30.45,30.28,3,1,4,0.00
2013-11-30,44,36,30,37,31,26,92,83,73,30.49,30.34,3,0,4,0.00
2013-12-1,43,35,29,38,31,26,90,87,77,30.57,30.42,3,0,4,0.00
2013-12-2,52,40,31,42,34,28,92,81,54,30.41,29.83,4,0,13,0.00
2013-12-3,42,33,26,37,21,12,83,62,49,30.04,29.75,6,3,9,0.00
2013-12-4,29,22,15,16,11,7,76,63,49,30.31,30.04,6,2,10,0.00
2013-12-5,26,18,11,13,10,6,81,69,54,30.36,30.24,1,0,2,0.00
2013-12-6,29,22,13,21,13,6,86,71,46,30.35,29.89,2,0,9,0.00
2013-12-7,25,20,8,21,14,3,86,76,58,30.43,29.88,2,0,4,0.00
2013-12-8,25,14,8,12,8,3,89,74,54,30.68,30.41,4,0,7,0.00
2013-12-9,30,19,10,16,10,4,81,70,56,30.80,30.63,5,1,7,0.00
2013-12-10,31,21,10,24,15,5,86,78,65,30.74,30.51,3,0,3,0.00
2013-12-11,37,25,18,25,18,14,83,74,57,30.61,30.45,2,0,4,0.00
2013-12-12,32,22,14,24,17,9,86,79,68,30.64,30.42,2,0,3,0.00
2013-12-13,38,26,19,27,21,15,89,80,58,30.65,30.45,3,1,6,0.11
2013-12-14,37,28,22,28,23,19,87,81,64,30.76,30.59,3,1,3,0.00
2013-12-15,37,28,22,28,23,18,87,80,63,30.72,30.54,2,1,3,0.00
2013-12-16,39,29,22,28,23,18,86,77,54,30.69,30.49,3,1,4,0.00
2013-12-17,38,30,25,29,24,21,84,79,67,30.57,30.37,2,0,3,0.00
2013-12-18,38,30,23,30,25,20,88,82,73,30.36,29.88,2,0,5,0.00
2013-12-19,36,32,27,28,21,14,84,63,48,30.17,29.84,7,3,13,0.00
2013-12-20,35,28,20,24,17,12,77,63,41,30.30,30.14,3,1,5,0.00
2013-12-21,47,34,26,32,26,22,88,75,50,30.32,30.10,3,1,4,0.00
2013-12-22,47,34,28,36,28,24,86,80,63,30.56,30.27,3,1,4,0.00
2013-12-23,39,31,26,32,27,22,89,85,76,30.69,30.51,2,0,3,0.00
2013-12-24,43,31,25,34,27,22,90,84,62,30.69,30.51,3,1,5,0.00
2013-12-25,43,31,25,32,26,22,90,83,64,30.69,30.49,2,1,4,0.00
2013-12-26,38,29,23,29,25,20,89,83,68,30.67,30.49,3,1,4,0.00
2013-12-27,35,28,23,29,24,19,88,84,78,30.59,30.39,2,0,3,0.00
2013-12-28,44,30,20,28,22,16,86,72,44,30.51,30.35,4,1,4,0.00
2013-12-29,43,33,27,27,23,21,79,68,46,30.53,30.36,3,1,4,0.00
2013-12-30,38,30,24,27,23,19,84,75,57,30.57,30.43,2,0,3,0.00
2013-12-31,42,32,28,28,23,20,78,69,47,30.50,30.36,2,0,3,0.00
2014-1-1,42,32,25,28,23,19,84,70,55,30.54,30.35,3,1,4,0.00
2014-1-2,40,31,25,29,25,20,86,77,60,30.51,30.31,2,0,3,0.00